createdAt,value
2024-02-06T00:06:58.909Z,7.20
2024-02-06T00:17:02.256Z,8.20
2024-02-06T00:27:05.461Z,8.70
2024-02-06T00:37:08.591Z,8.20
2024-02-06T00:47:11.876Z,15.70
2024-02-06T00:57:14.958Z,9.90
2024-02-06T01:07:20.178Z,11.30
2024-02-06T01:17:23.660Z,7.40
2024-02-06T01:27:26.962Z,9.80
2024-02-06T01:37:30.546Z,8.90
2024-02-06T01:47:34.094Z,15.10
2024-02-06T01:57:37.754Z,16.10
2024-02-06T02:07:42.438Z,11.40
2024-02-06T02:17:52.439Z,10.80
2024-02-06T02:27:55.765Z,10.10
2024-02-06T02:37:58.968Z,11.20
2024-02-06T02:48:02.487Z,12.20
2024-02-06T02:58:06.888Z,12.90
2024-02-06T03:08:10.618Z,10.40
2024-02-06T03:18:13.860Z,10.30
2024-02-06T03:28:17.246Z,9.80
2024-02-06T03:38:21.323Z,8.70
2024-02-06T03:48:24.668Z,9.20
2024-02-06T03:58:28.251Z,11.50
2024-02-06T04:08:31.463Z,8.80
2024-02-06T04:18:35.125Z,7.10
2024-02-06T04:28:38.512Z,8.10
2024-02-06T04:38:41.662Z,8.80
2024-02-06T04:48:45.980Z,8.80
2024-02-06T04:58:51.365Z,14.70
2024-02-06T05:08:54.546Z,10.10
2024-02-06T05:18:57.790Z,11.10
2024-02-06T05:29:01.118Z,14.70
2024-02-06T05:39:04.190Z,22.10
2024-02-06T05:49:07.521Z,17.80
2024-02-06T05:59:10.771Z,16.50
2024-02-06T06:09:14.291Z,16.10
2024-02-06T06:19:17.860Z,24.40
2024-02-06T06:29:20.989Z,20.20
2024-02-06T06:39:24.042Z,19.70
2024-02-06T06:49:27.392Z,21.70
2024-02-06T06:59:35.017Z,27.00
2024-02-06T07:09:38.385Z,25.30
2024-02-06T07:19:41.537Z,25.30
2024-02-06T07:29:44.843Z,26.70
2024-02-06T07:39:47.986Z,20.30
2024-02-06T07:49:51.212Z,19.40
2024-02-06T07:59:54.663Z,24.30
2024-02-06T08:09:57.802Z,12.30
2024-02-06T08:20:01.064Z,6.90
2024-02-06T08:30:10.941Z,9.90
2024-02-06T08:40:15.142Z,9.30
2024-02-06T08:50:18.420Z,11.30
2024-02-06T09:00:22.490Z,14.30
2024-02-06T09:10:26.999Z,8.50
2024-02-06T09:20:31.822Z,13.80
2024-02-06T09:30:38.972Z,9.30
2024-02-06T09:40:44.349Z,8.80
2024-02-06T09:50:48.136Z,10.70
2024-02-06T10:00:52.685Z,7.50
2024-02-06T10:10:58.043Z,13.40
2024-02-06T10:21:01.558Z,9.80
2024-02-06T10:31:12.295Z,10.00
2024-02-06T10:41:24.747Z,10.60
2024-02-06T10:51:35.223Z,9.00
2024-02-06T11:01:41.189Z,6.90
2024-02-06T11:11:44.967Z,8.40
2024-02-06T11:21:56.599Z,10.00
2024-02-06T11:32:00.561Z,7.90
2024-02-06T11:42:03.759Z,10.40
2024-02-06T11:52:09.302Z,10.00
2024-02-06T12:02:14.582Z,9.20
2024-02-06T12:12:20.484Z,15.20
2024-02-06T12:22:23.654Z,9.40
2024-02-06T12:32:27.634Z,10.00
2024-02-06T12:42:30.926Z,7.90
2024-02-06T12:52:35.282Z,14.00
2024-02-06T13:02:39.241Z,10.10
2024-02-06T13:12:43.307Z,10.60
2024-02-06T13:22:46.581Z,11.20
2024-02-06T13:32:50.256Z,15.60
2024-02-06T13:42:53.375Z,8.70
2024-02-06T13:53:01.118Z,12.00
2024-02-06T14:03:06.380Z,8.80
2024-02-06T14:13:10.450Z,10.90
2024-02-06T14:23:13.797Z,12.10
2024-02-06T14:33:17.138Z,8.90
2024-02-06T14:43:21.359Z,13.30
2024-02-06T14:53:25.456Z,15.80
2024-02-06T15:03:28.528Z,12.60
2024-02-06T15:13:32.519Z,8.00
2024-02-06T15:23:38.553Z,10.90
2024-02-06T15:33:41.718Z,12.90
2024-02-06T15:43:45.391Z,16.10
2024-02-06T15:53:48.678Z,14.60
2024-02-06T16:03:51.930Z,10.50
2024-02-06T16:13:55.293Z,14.70
2024-02-06T16:24:01.165Z,17.00
2024-02-06T16:34:05.677Z,16.90
2024-02-06T16:44:09.182Z,17.60
2024-02-06T16:54:12.975Z,12.80
2024-02-06T17:04:16.489Z,12.10
2024-02-06T17:14:19.966Z,19.90
2024-02-06T17:24:22.988Z,13.10
2024-02-06T17:34:26.321Z,12.10
2024-02-06T17:44:32.236Z,16.70
2024-02-06T17:54:35.446Z,14.20
2024-02-06T18:04:38.840Z,12.40
2024-02-06T18:14:42.178Z,11.20
2024-02-06T18:24:45.412Z,11.70
2024-02-06T18:34:49.004Z,15.10
2024-02-06T18:44:52.371Z,15.30
2024-02-06T18:54:55.614Z,11.20
2024-02-06T19:04:58.762Z,13.90
2024-02-06T19:15:03.131Z,14.80
2024-02-06T19:25:08.801Z,9.00
2024-02-06T19:35:12.358Z,8.80
2024-02-06T19:45:18.587Z,10.50
2024-02-06T19:55:22.156Z,13.50
2024-02-06T20:05:26.600Z,11.50
2024-02-06T20:15:34.189Z,11.90
2024-02-06T20:25:37.291Z,9.20
2024-02-06T20:35:40.451Z,8.50
2024-02-06T20:45:43.859Z,7.50
2024-02-06T20:55:47.446Z,7.90
2024-02-06T21:05:50.586Z,8.30
2024-02-06T21:15:59.560Z,7.70
2024-02-06T21:26:07.597Z,7.50
2024-02-06T21:36:11.743Z,7.80
2024-02-06T21:46:14.851Z,5.80
2024-02-06T21:56:22.300Z,6.10
2024-02-06T22:06:26.557Z,6.70
2024-02-06T22:16:29.829Z,6.20
2024-02-06T22:26:33.294Z,9.60
2024-02-06T22:36:43.443Z,5.00
2024-02-06T22:46:47.073Z,6.00
2024-02-06T22:56:53.044Z,7.90
2024-02-06T23:06:56.222Z,6.60
2024-02-06T23:16:59.532Z,5.60
2024-02-06T23:27:04.383Z,5.40
2024-02-06T23:37:07.549Z,6.60
2024-02-06T23:47:10.897Z,6.60
2024-02-06T23:57:14.040Z,6.50
